Time;durP1;ratioP1;P1;durP2;ratioP2;P2;SDS_P1;SDS_P2;PMS_P1;PMS_P2;Temp;Humidity;BMP_temperature;BMP_pressure;BME280_temperature;BME280_humidity;BME280_pressure;Samples;Min_cycle;Max_cycle;Signal;HPM_P1;HPM_P2
2022/08/25 00:00:50;;;;;;;;;;;;;;;;;;6245206;23;19914;-66
2022/08/25 00:03:16;;;;;;;;;;;;;;;;;;6245468;23;19907;-66
2022/08/25 00:05:42;;;;;;;;;;;;;;;;;;6244741;23;19915;-69
2022/08/25 00:08:07;;;;;;;;;;;;;;;;;;6245432;23;19910;-66
2022/08/25 00:10:33;;;;;;;;;;;;;;;;;;6245106;23;19911;-66
2022/08/25 00:12:59;;;;;;;;;;;;;;;;;;6245832;23;19977;-65
2022/08/25 00:15:24;;;;;;;;;;;;;;;;;;6243186;23;20324;-65
2022/08/25 00:17:50;;;;;;;;;;;;;;;;;;6243570;23;19911;-66
2022/08/25 00:20:16;;;;;;;;;;;;;;;;;;6243760;23;19908;-66
2022/08/25 00:22:41;;;;;;;;;;;;;;;;;;6243765;23;20245;-66
2022/08/25 00:25:08;;;;;;;;;;;;;;;;;;6243808;23;19934;-66
2022/08/25 00:27:34;;;;;;;;;;;;;;;;;;6243852;23;19935;-65
2022/08/25 00:29:59;;;;;;;;;;;;;;;;;;6243710;23;19914;-66
2022/08/25 00:32:25;;;;;;;;;;;;;;;;;;6243524;22;19911;-65
2022/08/25 00:34:52;;;;;;;;;;;;;;;;;;6243329;23;20331;-65
2022/08/25 00:37:17;;;;;;;;;;;;;;;;;;6243586;23;20288;-65
2022/08/25 00:39:43;;;;;;;;;;;;;;;;;;6243659;23;19913;-66
2022/08/25 00:42:09;;;;;;;;;;;;;;;;;;6243665;23;19982;-64
2022/08/25 00:44:34;;;;;;;;;;;;;;;;;;6243213;23;20263;-66
2022/08/25 00:47:00;;;;;;;;;;;;;;;;;;6243293;23;19982;-66
2022/08/25 00:49:26;;;;;;;;;;;;;;;;;;6243358;23;19908;-66
2022/08/25 00:51:51;;;;;;;;;;;;;;;;;;6243139;23;20358;-66
2022/08/25 00:54:17;;;;;;;;;;;;;;;;;;6243471;23;19914;-65
2022/08/25 00:56:43;;;;;;;;;;;;;;;;;;6243559;23;19914;-64
2022/08/25 00:59:08;;;;;;;;;;;;;;;;;;6242956;23;19969;-65
2022/08/25 01:01:34;;;;;;;;;;;;;;;;;;6243446;23;20297;-65
2022/08/25 01:03:59;;;;;;;;;;;;;;;;;;6243267;23;20356;-65
2022/08/25 01:06:25;;;;;;;;;;;;;;;;;;6243089;23;20233;-65
2022/08/25 01:08:51;;;;;;;;;;;;;;;;;;6242957;23;19908;-65
2022/08/25 01:11:16;;;;;;;;;;;;;;;;;;6243094;23;19915;-65
2022/08/25 01:13:43;;;;;;;;;;;;;;;;;;6243216;23;19907;-64
2022/08/25 01:16:09;;;;;;;;;;;;;;;;;;6242861;23;19907;-65
2022/08/25 01:18:34;;;;;;;;;;;;;;;;;;6243105;23;20351;-66
2022/08/25 01:21:00;;;;;;;;;;;;;;;;;;6242735;23;20363;-65
2022/08/25 01:23:26;;;;;;;;;;;;;;;;;;6243193;23;19915;-64
2022/08/25 01:25:51;;;;;;;;;;;;;;;;;;6242532;23;19948;-65
2022/08/25 01:28:17;;;;;;;;;;;;;;;;;;6243093;23;20338;-65
2022/08/25 01:30:43;;;;;;;;;;;;;;;;;;6243239;23;20336;-64
2022/08/25 01:33:08;;;;;;;;;;;;;;;;;;6242846;22;20319;-63
2022/08/25 01:35:34;;;;;;;;;;;;;;;;;;6242870;23;20335;-66
2022/08/25 01:38:00;;;;;;;;;;;;;;;;;;6242747;23;19953;-64
2022/08/25 01:40:26;;;;;;;;;;;;;;;;;;6243036;23;19986;-66
2022/08/25 01:42:51;;;;;;;;;;;;;;;;;;6242681;23;19907;-64
2022/08/25 01:45:17;;;;;;;;;;;;;;;;;;6242801;23;19915;-65
2022/08/25 01:47:43;;;;;;;;;;;;;;;;;;6242804;23;19953;-65
2022/08/25 01:50:08;;;;;;;;;;;;;;;;;;6242430;23;19907;-65
2022/08/25 01:52:34;;;;;;;;;;;;;;;;;;6242898;23;20042;-64
2022/08/25 01:55:00;;;;;;;;;;;;;;;;;;6242422;23;19911;-66
2022/08/25 01:57:25;;;;;;;;;;;;;;;;;;6243116;23;19908;-66
2022/08/25 01:59:51;;;;;;;;;;;;;;;;;;6242096;23;20419;-64
2022/08/25 02:02:17;;;;;;;;;;;;;;;;;;6216266;23;20267;-65
2022/08/25 02:04:42;;;;;;;;;;;;;;;;;;6241035;23;20360;-64
2022/08/25 02:07:08;;;;;;;;;;;;;;;;;;6242727;23;20400;-64
2022/08/25 02:09:34;;;;;;;;;;;;;;;;;;6242523;23;19907;-65
2022/08/25 02:12:00;;;;;;;;;;;;;;;;;;6242558;23;19907;-65
2022/08/25 02:14:27;;;;;;;;;;;;;;;;;;6242732;23;20021;-66
2022/08/25 02:16:53;;;;;;;;;;;;;;;;;;6242392;23;19989;-65
2022/08/25 02:19:18;;;;;;;;;;;;;;;;;;6242560;23;19907;-65
2022/08/25 02:21:44;;;;;;;;;;;;;;;;;;6242800;23;19912;-66
2022/08/25 02:24:10;;;;;;;;;;;;;;;;;;6242511;23;19908;-65
2022/08/25 02:26:36;;;;;;;;;;;;;;;;;;6215556;23;19915;-65
2022/08/25 02:29:02;;;;;;;;;;;;;;;;;;6242264;23;20379;-64
2022/08/25 02:31:27;;;;;;;;;;;;;;;;;;6242377;22;20010;-66
2022/08/25 02:33:53;;;;;;;;;;;;;;;;;;6242178;23;19908;-65
2022/08/25 02:36:19;;;;;;;;;;;;;;;;;;6242860;23;19969;-64
2022/08/25 02:38:46;;;;;;;;;;;;;;;;;;6242161;23;19939;-66
2022/08/25 02:41:11;;;;;;;;;;;;;;;;;;6242152;23;19954;-64
2022/08/25 02:43:37;;;;;;;;;;;;;;;;;;6242219;23;20267;-64
2022/08/25 02:46:03;;;;;;;;;;;;;;;;;;6242103;23;19915;-66
2022/08/25 02:48:29;;;;;;;;;;;;;;;;;;6243484;23;19951;-65
2022/08/25 02:50:54;;;;;;;;;;;;;;;;;;6242004;23;19918;-65
2022/08/25 02:53:20;;;;;;;;;;;;;;;;;;6242464;23;19914;-65
2022/08/25 02:55:46;;;;;;;;;;;;;;;;;;6242322;23;19993;-65
2022/08/25 02:58:11;;;;;;;;;;;;;;;;;;6242164;23;19908;-65
2022/08/25 03:00:37;;;;;;;;;;;;;;;;;;6241984;23;20281;-65
2022/08/25 03:03:03;;;;;;;;;;;;;;;;;;6242108;23;19907;-66
2022/08/25 03:05:28;;;;;;;;;;;;;;;;;;6242410;23;19963;-65
2022/08/25 03:07:55;;;;;;;;;;;;;;;;;;6242042;23;19907;-66
2022/08/25 03:10:20;;;;;;;;;;;;;;;;;;6242273;23;19930;-65
2022/08/25 03:12:46;;;;;;;;;;;;;;;;;;6242308;23;20237;-65
2022/08/25 03:15:12;;;;;;;;;;;;;;;;;;6241991;23;19953;-66
2022/08/25 03:17:37;;;;;;;;;;;;;;;;;;6242224;23;19915;-65
2022/08/25 03:20:03;;;;;;;;;;;;;;;;;;6215220;23;19908;-64
2022/08/25 03:22:28;;;;;;;;;;;;;;;;;;6242556;23;19915;-65
2022/08/25 03:26:52;;;;;;;;;;;;;;;;;;6241810;23;19969;-65
2022/08/25 03:27:39;;;;;;;;;;;;;;;;;;6242098;23;19908;-65
2022/08/25 03:30:05;;;;;;;;;;;;;;;;;;6241928;23;19911;-65
2022/08/25 03:32:31;;;;;;;;;;;;;;;;;;6242120;22;19923;-65
2022/08/25 03:34:57;;;;;;;;;;;;;;;;;;6215155;23;19907;-65
2022/08/25 03:37:22;;;;;;;;;;;;;;;;;;6242110;23;20348;-65
2022/08/25 03:39:48;;;;;;;;;;;;;;;;;;6215382;23;19918;-65
2022/08/25 03:42:14;;;;;;;;;;;;;;;;;;6241993;23;19908;-66
2022/08/25 03:44:39;;;;;;;;;;;;;;;;;;6241843;23;19961;-65
2022/08/25 03:47:05;;;;;;;;;;;;;;;;;;6240130;23;19956;-65
2022/08/25 03:49:31;;;;;;;;;;;;;;;;;;6243379;23;20348;-65
2022/08/25 03:51:57;;;;;;;;;;;;;;;;;;6217488;23;19913;-64
2022/08/25 03:54:22;;;;;;;;;;;;;;;;;;6244459;23;19911;-64
2022/08/25 03:56:48;;;;;;;;;;;;;;;;;;6243897;23;20311;-66
2022/08/25 03:59:14;;;;;;;;;;;;;;;;;;6243574;23;19922;-66
2022/08/25 04:01:39;;;;;;;;;;;;;;;;;;6191957;23;20371;-65
2022/08/25 04:04:05;;;;;;;;;;;;;;;;;;6243714;23;20353;-65
2022/08/25 04:06:30;;;;;;;;;;;;;;;;;;6241997;23;19915;-66
2022/08/25 04:08:57;;;;;;;;;;;;;;;;;;6243634;23;19912;-68
2022/08/25 04:11:23;;;;;;;;;;;;;;;;;;6243609;23;19907;-66
2022/08/25 04:13:48;;;;;;;;;;;;;;;;;;6243752;23;19943;-67
2022/08/25 04:16:14;;;;;;;;;;;;;;;;;;6243392;23;19907;-67
2022/08/25 04:18:39;;;;;;;;;;;;;;;;;;6243567;23;19907;-67
2022/08/25 04:21:07;;;;;;;;;;;;;;;;;;6243338;23;19955;-66
2022/08/25 04:23:33;;;;;;;;;;;;;;;;;;6243574;23;20037;-66
2022/08/25 04:25:59;;;;;;;;;;;;;;;;;;6243305;23;19958;-67
2022/08/25 04:28:24;;;;;;;;;;;;;;;;;;6243550;23;19930;-66
2022/08/25 04:30:50;;;;;;;;;;;;;;;;;;6243368;23;19954;-66
2022/08/25 04:33:16;;;;;;;;;;;;;;;;;;6242878;22;19986;-66
2022/08/25 04:35:41;;;;;;;;;;;;;;;;;;6243992;23;19908;-66
2022/08/25 04:38:07;;;;;;;;;;;;;;;;;;6243078;23;19907;-65
2022/08/25 04:40:33;;;;;;;;;;;;;;;;;;6243285;23;19934;-66
2022/08/25 04:42:59;;;;;;;;;;;;;;;;;;6216182;23;20252;-66
2022/08/25 04:45:24;;;;;;;;;;;;;;;;;;6216383;23;19937;-66
2022/08/25 04:47:50;;;;;;;;;;;;;;;;;;6243460;23;20397;-67
2022/08/25 04:50:15;;;;;;;;;;;;;;;;;;6243000;23;20343;-66
2022/08/25 04:52:41;;;;;;;;;;;;;;;;;;6243703;23;19907;-66
2022/08/25 04:55:07;;;;;;;;;;;;;;;;;;6243018;23;20343;-66
2022/08/25 04:57:32;;;;;;;;;;;;;;;;;;6243269;23;20268;-65
2022/08/25 04:59:58;;;;;;;;;;;;;;;;;;6243248;23;19922;-66
2022/08/25 05:02:24;;;;;;;;;;;;;;;;;;6243204;23;19938;-67
2022/08/25 05:04:50;;;;;;;;;;;;;;;;;;6243464;23;19911;-67
2022/08/25 05:07:15;;;;;;;;;;;;;;;;;;6243006;23;19915;-67
2022/08/25 05:09:41;;;;;;;;;;;;;;;;;;6243201;23;20352;-67
2022/08/25 05:12:06;;;;;;;;;;;;;;;;;;6191194;23;19907;-66
2022/08/25 05:14:32;;;;;;;;;;;;;;;;;;6243284;23;19913;-66
2022/08/25 05:16:58;;;;;;;;;;;;;;;;;;6243098;23;19907;-66
2022/08/25 05:19:23;;;;;;;;;;;;;;;;;;6243006;23;19911;-67
2022/08/25 05:21:49;;;;;;;;;;;;;;;;;;6241649;23;19933;-67
2022/08/25 05:24:14;;;;;;;;;;;;;;;;;;6243189;23;19911;-68
2022/08/25 05:26:40;;;;;;;;;;;;;;;;;;6216308;23;19922;-68
2022/08/25 05:29:06;;;;;;;;;;;;;;;;;;6243255;23;19908;-68
2022/08/25 05:31:32;;;;;;;;;;;;;;;;;;6241508;22;19908;-68
2022/08/25 05:33:57;;;;;;;;;;;;;;;;;;6243014;23;19914;-67
2022/08/25 05:36:23;;;;;;;;;;;;;;;;;;6240848;23;19953;-66
2022/08/25 05:38:48;;;;;;;;;;;;;;;;;;6242946;23;19991;-67
2022/08/25 05:41:15;;;;;;;;;;;;;;;;;;6215586;23;19997;-69
2022/08/25 05:43:40;;;;;;;;;;;;;;;;;;6242675;23;19990;-67
2022/08/25 05:46:06;;;;;;;;;;;;;;;;;;6242240;23;20359;-68
2022/08/25 05:48:32;;;;;;;;;;;;;;;;;;6242705;23;19914;-67
2022/08/25 05:50:58;;;;;;;;;;;;;;;;;;6215735;23;19994;-68
2022/08/25 05:53:23;;;;;;;;;;;;;;;;;;6242461;23;19914;-69
2022/08/25 05:55:49;;;;;;;;;;;;;;;;;;6242799;23;19954;-67
2022/08/25 05:58:14;;;;;;;;;;;;;;;;;;6242386;23;19911;-68
2022/08/25 06:00:40;;;;;;;;;;;;;;;;;;6242328;23;19998;-67
2022/08/25 06:03:06;;;;;;;;;;;;;;;;;;6242531;23;19915;-67
2022/08/25 06:05:32;;;;;;;;;;;;;;;;;;6242469;23;19915;-69
2022/08/25 06:07:57;;;;;;;;;;;;;;;;;;6243079;23;19943;-69
2022/08/25 06:10:23;;;;;;;;;;;;;;;;;;6242478;23;19919;-67
2022/08/25 06:12:49;;;;;;;;;;;;;;;;;;6242282;23;19907;-67
2022/08/25 06:15:15;;;;;;;;;;;;;;;;;;6242242;23;19911;-69
2022/08/25 06:17:41;;;;;;;;;;;;;;;;;;6242613;23;19914;-67
2022/08/25 06:20:07;;;;;;;;;;;;;;;;;;6242228;23;20241;-70
2022/08/25 06:22:33;;;;;;;;;;;;;;;;;;6242533;23;20371;-67
2022/08/25 06:24:59;;;;;;;;;;;;;;;;;;6242542;23;19915;-67
2022/08/25 06:27:24;;;;;;;;;;;;;;;;;;6215170;23;19907;-66
2022/08/25 06:29:50;;;;;;;;;;;;;;;;;;6242671;23;20365;-68
2022/08/25 06:32:16;;;;;;;;;;;;;;;;;;6242114;22;19915;-69
2022/08/25 06:34:41;;;;;;;;;;;;;;;;;;6242354;23;19911;-69
2022/08/25 06:37:07;;;;;;;;;;;;;;;;;;6242117;23;19907;-68
2022/08/25 06:39:33;;;;;;;;;;;;;;;;;;6242551;23;19926;-66
2022/08/25 06:41:58;;;;;;;;;;;;;;;;;;6242163;23;20115;-67
2022/08/25 06:44:26;;;;;;;;;;;;;;;;;;6242227;23;20285;-67
2022/08/25 06:46:52;;;;;;;;;;;;;;;;;;6242547;23;19970;-67
2022/08/25 06:49:17;;;;;;;;;;;;;;;;;;6242164;23;19907;-67
2022/08/25 06:51:43;;;;;;;;;;;;;;;;;;6242101;23;19907;-68
2022/08/25 06:54:11;;;;;;;;;;;;;;;;;;6241974;23;19914;-68
2022/08/25 06:56:37;;;;;;;;;;;;;;;;;;6215350;23;19907;-66
2022/08/25 06:59:02;;;;;;;;;;;;;;;;;;6242274;23;20352;-67
2022/08/25 07:01:28;;;;;;;;;;;;;;;;;;6241824;23;19961;-70
2022/08/25 07:03:56;;;;;;;;;;;;;;;;;;6242284;23;19961;-68
2022/08/25 07:06:21;;;;;;;;;;;;;;;;;;6215026;23;19998;-68
2022/08/25 07:08:47;;;;;;;;;;;;;;;;;;6242794;23;19938;-67
2022/08/25 07:11:16;;;;;;;;;;;;;;;;;;6242657;23;19907;-67
2022/08/25 07:13:42;;;;;;;;;;;;;;;;;;6242534;23;20360;-69
2022/08/25 07:16:09;;;;;;;;;;;;;;;;;;6242043;23;19961;-68
2022/08/25 07:18:35;;;;;;;;;;;;;;;;;;6242335;23;19919;-66
2022/08/25 07:21:01;;;;;;;;;;;;;;;;;;6242194;23;19908;-68
2022/08/25 07:23:26;;;;;;;;;;;;;;;;;;6242261;23;19908;-67
2022/08/25 07:25:52;;;;;;;;;;;;;;;;;;6244448;23;19954;-67
2022/08/25 07:28:18;;;;;;;;;;;;;;;;;;6244034;23;19907;-67
2022/08/25 07:30:44;;;;;;;;;;;;;;;;;;6244081;23;19914;-68
2022/08/25 07:33:09;;;;;;;;;;;;;;;;;;6243938;22;19907;-66
2022/08/25 07:35:35;;;;;;;;;;;;;;;;;;6241642;23;19912;-68
2022/08/25 07:38:01;;;;;;;;;;;;;;;;;;6243085;23;19919;-67
2022/08/25 07:40:27;;;;;;;;;;;;;;;;;;6243743;23;19908;-68
2022/08/25 07:42:52;;;;;;;;;;;;;;;;;;6244127;23;20408;-68
2022/08/25 07:45:18;;;;;;;;;;;;;;;;;;6243770;23;20362;-67
2022/08/25 07:47:44;;;;;;;;;;;;;;;;;;6243949;23;19915;-68
2022/08/25 07:50:10;;;;;;;;;;;;;;;;;;6244243;23;19907;-69
2022/08/25 07:52:36;;;;;;;;;;;;;;;;;;6243868;23;19911;-67
2022/08/25 07:55:02;;;;;;;;;;;;;;;;;;6244126;23;20271;-67
2022/08/25 07:57:29;;;;;;;;;;;;;;;;;;6243831;23;19935;-69
2022/08/25 07:59:54;;;;;;;;;;;;;;;;;;6243809;23;19915;-68
2022/08/25 08:02:20;;;;;;;;;;;;;;;;;;6243501;23;20046;-68
2022/08/25 08:04:47;;;;;;;;;;;;;;;;;;6244031;23;19950;-69
2022/08/25 08:07:12;;;;;;;;;;;;;;;;;;6243483;23;19914;-68
2022/08/25 08:09:38;;;;;;;;;;;;;;;;;;6244126;23;19907;-67
2022/08/25 08:12:04;;;;;;;;;;;;;;;;;;6243842;23;19915;-67
2022/08/25 08:14:30;;;;;;;;;;;;;;;;;;6243756;23;19992;-68
2022/08/25 08:16:56;;;;;;;;;;;;;;;;;;6191791;23;19911;-69
2022/08/25 08:19:21;;;;;;;;;;;;;;;;;;6243499;23;19916;-68
2022/08/25 08:21:48;;;;;;;;;;;;;;;;;;6244090;23;20256;-68
2022/08/25 08:24:14;;;;;;;;;;;;;;;;;;6243698;23;19923;-70
2022/08/25 08:26:39;;;;;;;;;;;;;;;;;;6216809;23;19907;-68
2022/08/25 08:29:05;;;;;;;;;;;;;;;;;;6243602;23;19911;-69
2022/08/25 08:31:30;;;;;;;;;;;;;;;;;;6243118;22;20363;-66
2022/08/25 08:33:56;;;;;;;;;;;;;;;;;;6243643;23;19915;-69
2022/08/25 08:36:22;;;;;;;;;;;;;;;;;;6242593;23;19919;-67
2022/08/25 08:38:48;;;;;;;;;;;;;;;;;;6216849;23;19922;-69
2022/08/25 08:43:57;;;;;;;;;;;;;;;;;;6243481;23;19993;-68
2022/08/25 08:46:23;;;;;;;;;;;;;;;;;;6243095;23;20000;-68
2022/08/25 08:48:49;;;;;;;;;;;;;;;;;;6217172;23;19914;-68
2022/08/25 08:51:15;;;;;;;;;;;;;;;;;;6243620;23;19911;-70
2022/08/25 08:53:40;;;;;;;;;;;;;;;;;;6243453;23;19939;-67
2022/08/25 08:56:06;;;;;;;;;;;;;;;;;;6243615;23;19922;-67
2022/08/25 08:58:32;;;;;;;;;;;;;;;;;;6243069;23;19927;-66
2022/08/25 09:01:00;;;;;;;;;;;;;;;;;;6243409;23;19934;-69
2022/08/25 09:03:25;;;;;;;;;;;;;;;;;;6241385;23;19911;-69
2022/08/25 09:05:51;;;;;;;;;;;;;;;;;;6243311;23;19930;-67
2022/08/25 09:08:17;;;;;;;;;;;;;;;;;;6243347;23;20002;-67
2022/08/25 09:10:42;;;;;;;;;;;;;;;;;;6242995;23;19907;-68
2022/08/25 09:13:08;;;;;;;;;;;;;;;;;;6243171;23;20291;-68
2022/08/25 09:18:18;;;;;;;;;;;;;;;;;;6242837;23;19929;-69
2022/08/25 09:20:43;;;;;;;;;;;;;;;;;;6216331;23;19914;-69
2022/08/25 09:23:09;;;;;;;;;;;;;;;;;;6243432;23;19908;-68
2022/08/25 09:25:36;;;;;;;;;;;;;;;;;;6242779;23;19907;-67
2022/08/25 09:28:01;;;;;;;;;;;;;;;;;;6243103;23;19985;-68
2022/08/25 09:30:27;;;;;;;;;;;;;;;;;;6242671;23;19942;-69
2022/08/25 09:32:58;;;;;;;;;;;;;;;;;;6240908;22;19907;-68
2022/08/25 09:35:25;;;;;;;;;;;;;;;;;;6242504;23;19922;-66
2022/08/25 09:37:50;;;;;;;;;;;;;;;;;;6242773;23;19908;-67
2022/08/25 09:40:16;;;;;;;;;;;;;;;;;;6242750;23;19907;-70
2022/08/25 09:42:41;;;;;;;;;;;;;;;;;;6242677;23;19988;-68
2022/08/25 09:45:07;;;;;;;;;;;;;;;;;;6243019;23;20359;-68
2022/08/25 09:47:33;;;;;;;;;;;;;;;;;;6242382;23;19911;-68
2022/08/25 09:49:59;;;;;;;;;;;;;;;;;;6242794;23;20356;-69
2022/08/25 09:52:25;;;;;;;;;;;;;;;;;;6242466;23;19914;-69
2022/08/25 09:54:51;;;;;;;;;;;;;;;;;;6242531;23;19908;-68
2022/08/25 09:57:16;;;;;;;;;;;;;;;;;;6242399;23;19953;-69
2022/08/25 09:59:43;;;;;;;;;;;;;;;;;;6242511;23;19916;-67
2022/08/25 10:02:09;;;;;;;;;;;;;;;;;;6242826;23;19914;-70
2022/08/25 10:04:37;;;;;;;;;;;;;;;;;;6242489;23;19908;-66
2022/08/25 10:07:03;;;;;;;;;;;;;;;;;;6242703;23;19961;-67
2022/08/25 10:09:29;;;;;;;;;;;;;;;;;;6215736;23;20291;-68
2022/08/25 10:11:54;;;;;;;;;;;;;;;;;;6242523;23;20025;-68
2022/08/25 10:14:20;;;;;;;;;;;;;;;;;;6242571;23;19981;-68
2022/08/25 10:16:46;;;;;;;;;;;;;;;;;;6242628;23;19926;-67
2022/08/25 10:19:12;;;;;;;;;;;;;;;;;;6242770;23;19911;-67
2022/08/25 10:21:37;;;;;;;;;;;;;;;;;;6242305;23;19923;-68
2022/08/25 10:24:04;;;;;;;;;;;;;;;;;;6242674;23;19907;-69
2022/08/25 10:26:30;;;;;;;;;;;;;;;;;;6242075;23;19911;-69
2022/08/25 10:28:56;;;;;;;;;;;;;;;;;;6242519;23;19994;-67
2022/08/25 10:31:21;;;;;;;;;;;;;;;;;;6242723;22;19913;-68
2022/08/25 10:33:48;;;;;;;;;;;;;;;;;;6242812;23;19938;-67
2022/08/25 10:36:13;;;;;;;;;;;;;;;;;;6242288;23;19969;-68
2022/08/25 10:38:39;;;;;;;;;;;;;;;;;;6242178;23;19911;-68
2022/08/25 10:41:05;;;;;;;;;;;;;;;;;;6242330;23;20291;-66
2022/08/25 10:43:30;;;;;;;;;;;;;;;;;;6215456;23;20312;-67
2022/08/25 10:45:57;;;;;;;;;;;;;;;;;;6242468;23;20298;-68
2022/08/25 10:48:23;;;;;;;;;;;;;;;;;;6241973;23;19907;-67
2022/08/25 10:50:48;;;;;;;;;;;;;;;;;;6242395;23;19914;-68
2022/08/25 10:53:14;;;;;;;;;;;;;;;;;;6242384;23;19927;-68
2022/08/25 10:55:42;;;;;;;;;;;;;;;;;;6215168;23;20268;-68
2022/08/25 10:58:07;;;;;;;;;;;;;;;;;;6241787;23;20307;-68
2022/08/25 11:00:34;;;;;;;;;;;;;;;;;;6241940;23;19919;-67
2022/08/25 11:02:59;;;;;;;;;;;;;;;;;;6242279;23;19907;-68
2022/08/25 11:05:25;;;;;;;;;;;;;;;;;;6242143;23;20267;-67
2022/08/25 11:07:51;;;;;;;;;;;;;;;;;;6242207;23;19907;-68
2022/08/25 11:10:16;;;;;;;;;;;;;;;;;;6242402;23;20308;-69
2022/08/25 11:12:42;;;;;;;;;;;;;;;;;;6241929;23;19914;-69
2022/08/25 11:15:07;;;;;;;;;;;;;;;;;;6242408;23;19907;-68
2022/08/25 11:17:34;;;;;;;;;;;;;;;;;;6241960;23;19911;-68
2022/08/25 11:20:00;;;;;;;;;;;;;;;;;;6242295;23;19916;-68
2022/08/25 11:22:26;;;;;;;;;;;;;;;;;;6241633;23;19911;-68
2022/08/25 11:24:51;;;;;;;;;;;;;;;;;;6242531;23;19938;-68
2022/08/25 11:27:17;;;;;;;;;;;;;;;;;;6242045;23;20260;-68
2022/08/25 11:29:43;;;;;;;;;;;;;;;;;;6241693;23;20219;-67
2022/08/25 11:32:08;;;;;;;;;;;;;;;;;;6242030;22;20355;-68
2022/08/25 11:34:34;;;;;;;;;;;;;;;;;;6242391;23;19987;-68
2022/08/25 11:37:02;;;;;;;;;;;;;;;;;;6241983;23;20348;-69
2022/08/25 11:39:28;;;;;;;;;;;;;;;;;;6242027;23;19990;-67
2022/08/25 11:41:53;;;;;;;;;;;;;;;;;;6215426;23;19945;-67
2022/08/25 11:44:19;;;;;;;;;;;;;;;;;;6242836;23;19911;-67
2022/08/25 11:46:45;;;;;;;;;;;;;;;;;;6241664;23;20097;-69
2022/08/25 11:49:11;;;;;;;;;;;;;;;;;;6242211;23;19938;-68
2022/08/25 11:51:36;;;;;;;;;;;;;;;;;;6241408;23;19982;-69
2022/08/25 11:54:02;;;;;;;;;;;;;;;;;;6242190;23;19919;-68
2022/08/25 11:56:28;;;;;;;;;;;;;;;;;;6241318;23;20355;-68
2022/08/25 11:58:53;;;;;;;;;;;;;;;;;;6241773;23;20339;-67
2022/08/25 12:01:19;;;;;;;;;;;;;;;;;;6242190;23;19915;-68
2022/08/25 12:03:45;;;;;;;;;;;;;;;;;;6241563;23;19907;-68
2022/08/25 12:06:11;;;;;;;;;;;;;;;;;;6241753;23;20003;-68
2022/08/25 12:11:02;;;;;;;;;;;;;;;;;;6243527;23;19907;-69
2022/08/25 12:13:28;;;;;;;;;;;;;;;;;;6243344;23;19927;-66
2022/08/25 12:15:54;;;;;;;;;;;;;;;;;;6243823;23;19923;-70
2022/08/25 12:18:21;;;;;;;;;;;;;;;;;;6243708;23;19915;-66
2022/08/25 12:20:47;;;;;;;;;;;;;;;;;;6243395;23;19919;-67
2022/08/25 12:23:12;;;;;;;;;;;;;;;;;;6243742;23;19907;-67
2022/08/25 12:25:38;;;;;;;;;;;;;;;;;;6243008;23;19908;-68
2022/08/25 12:28:05;;;;;;;;;;;;;;;;;;6243453;23;19957;-68
2022/08/25 12:30:31;;;;;;;;;;;;;;;;;;6243390;23;19907;-69
2022/08/25 12:32:57;;;;;;;;;;;;;;;;;;6243200;22;19907;-69
2022/08/25 12:35:22;;;;;;;;;;;;;;;;;;6243158;23;19915;-68
2022/08/25 12:37:48;;;;;;;;;;;;;;;;;;6242764;23;19907;-69
2022/08/25 12:40:14;;;;;;;;;;;;;;;;;;6243340;23;19915;-66
2022/08/25 12:42:42;;;;;;;;;;;;;;;;;;6242750;23;19961;-68
2022/08/25 12:45:07;;;;;;;;;;;;;;;;;;6243989;23;20283;-68
2022/08/25 12:47:33;;;;;;;;;;;;;;;;;;6243190;23;19911;-68
2022/08/25 12:49:59;;;;;;;;;;;;;;;;;;6243516;23;19907;-68
2022/08/25 12:52:25;;;;;;;;;;;;;;;;;;6243388;23;19907;-68
2022/08/25 12:54:50;;;;;;;;;;;;;;;;;;6243144;23;20338;-67
2022/08/25 12:57:16;;;;;;;;;;;;;;;;;;6243151;23;19923;-69
2022/08/25 12:59:42;;;;;;;;;;;;;;;;;;6242898;23;20418;-68
2022/08/25 13:02:07;;;;;;;;;;;;;;;;;;6243134;23;19915;-68
2022/08/25 13:04:33;;;;;;;;;;;;;;;;;;6243107;23;19918;-67
2022/08/25 13:06:59;;;;;;;;;;;;;;;;;;6241543;23;19961;-68
2022/08/25 13:09:25;;;;;;;;;;;;;;;;;;6216666;23;19998;-67
2022/08/25 13:11:50;;;;;;;;;;;;;;;;;;6243213;23;20365;-67
2022/08/25 13:14:16;;;;;;;;;;;;;;;;;;6216746;23;20307;-69
2022/08/25 13:16:42;;;;;;;;;;;;;;;;;;6242773;23;20006;-68
2022/08/25 13:19:08;;;;;;;;;;;;;;;;;;6243367;23;19986;-66
2022/08/25 13:21:33;;;;;;;;;;;;;;;;;;6240845;23;20268;-67
2022/08/25 13:23:59;;;;;;;;;;;;;;;;;;6243058;23;20340;-68
2022/08/25 13:26:25;;;;;;;;;;;;;;;;;;6243161;23;19907;-69
2022/08/25 13:28:50;;;;;;;;;;;;;;;;;;6242477;23;19914;-68
2022/08/25 13:31:16;;;;;;;;;;;;;;;;;;6242833;22;19942;-68
2022/08/25 13:33:41;;;;;;;;;;;;;;;;;;6242464;23;20287;-66
2022/08/25 13:38:52;;;;;;;;;;;;;;;;;;6242359;23;19914;-68
2022/08/25 13:41:18;;;;;;;;;;;;;;;;;;6242950;23;19911;-69
2022/08/25 13:43:43;;;;;;;;;;;;;;;;;;6242702;23;19908;-68
2022/08/25 13:46:09;;;;;;;;;;;;;;;;;;6242960;23;19953;-69
2022/08/25 13:48:34;;;;;;;;;;;;;;;;;;6242377;23;20022;-66
2022/08/25 13:51:00;;;;;;;;;;;;;;;;;;6243252;23;19908;-67
2022/08/25 13:53:26;;;;;;;;;;;;;;;;;;6242756;23;20348;-67
2022/08/25 13:55:52;;;;;;;;;;;;;;;;;;6242103;23;20006;-67
2022/08/25 13:58:18;;;;;;;;;;;;;;;;;;6242939;23;19907;-67
2022/08/25 14:00:44;;;;;;;;;;;;;;;;;;6242306;23;19915;-67
2022/08/25 14:03:09;;;;;;;;;;;;;;;;;;6242655;23;19915;-69
2022/08/25 14:05:35;;;;;;;;;;;;;;;;;;6242393;23;19907;-67
2022/08/25 14:08:01;;;;;;;;;;;;;;;;;;6242398;23;20344;-66
2022/08/25 14:10:27;;;;;;;;;;;;;;;;;;6242568;23;19938;-67
2022/08/25 14:12:52;;;;;;;;;;;;;;;;;;6241959;23;20344;-68
2022/08/25 14:15:21;;;;;;;;;;;;;;;;;;6240952;23;19922;-66
2022/08/25 14:17:46;;;;;;;;;;;;;;;;;;6241869;23;19998;-68
2022/08/25 14:20:12;;;;;;;;;;;;;;;;;;6215603;23;19962;-68
2022/08/25 14:22:38;;;;;;;;;;;;;;;;;;6241747;23;19907;-67
2022/08/25 14:25:03;;;;;;;;;;;;;;;;;;6242272;23;19907;-68
2022/08/25 14:27:29;;;;;;;;;;;;;;;;;;6242501;23;19962;-67
2022/08/25 14:29:54;;;;;;;;;;;;;;;;;;6241899;23;19908;-67
2022/08/25 14:32:20;;;;;;;;;;;;;;;;;;6240412;22;19908;-68
2022/08/25 14:34:45;;;;;;;;;;;;;;;;;;6241390;23;20236;-68
2022/08/25 14:37:11;;;;;;;;;;;;;;;;;;6242278;23;20340;-67
2022/08/25 14:39:37;;;;;;;;;;;;;;;;;;6241826;23;19907;-67
2022/08/25 14:42:02;;;;;;;;;;;;;;;;;;6241803;23;19911;-69
2022/08/25 14:44:28;;;;;;;;;;;;;;;;;;6242079;23;20335;-66
2022/08/25 14:46:54;;;;;;;;;;;;;;;;;;6242136;23;19954;-68
2022/08/25 14:49:19;;;;;;;;;;;;;;;;;;6242576;23;19922;-67
2022/08/25 14:51:45;;;;;;;;;;;;;;;;;;6241746;23;19914;-68
2022/08/25 14:54:11;;;;;;;;;;;;;;;;;;6241866;23;19907;-67
2022/08/25 14:56:37;;;;;;;;;;;;;;;;;;6241838;23;19915;-68
2022/08/25 14:59:03;;;;;;;;;;;;;;;;;;6241731;23;20343;-68
2022/08/25 15:01:29;;;;;;;;;;;;;;;;;;6215043;23;19914;-68
2022/08/25 15:03:54;;;;;;;;;;;;;;;;;;6241601;23;19908;-67
2022/08/25 15:06:20;;;;;;;;;;;;;;;;;;6242086;23;19977;-68
2022/08/25 15:11:29;;;;;;;;;;;;;;;;;;6240670;23;19907;-69
2022/08/25 15:13:55;;;;;;;;;;;;;;;;;;6214839;23;20177;-68
2022/08/25 15:16:21;;;;;;;;;;;;;;;;;;6241541;23;20255;-67
2022/08/25 15:18:47;;;;;;;;;;;;;;;;;;6239801;23;19907;-68
2022/08/25 15:21:13;;;;;;;;;;;;;;;;;;6241493;23;19907;-68
2022/08/25 15:23:38;;;;;;;;;;;;;;;;;;6241180;23;19990;-68
2022/08/25 15:26:04;;;;;;;;;;;;;;;;;;6242506;23;19943;-68
2022/08/25 15:28:29;;;;;;;;;;;;;;;;;;6242181;23;20391;-69
2022/08/25 15:30:55;;;;;;;;;;;;;;;;;;6215484;23;20385;-68
2022/08/25 15:33:21;;;;;;;;;;;;;;;;;;6242904;22;19950;-69
2022/08/25 15:35:47;;;;;;;;;;;;;;;;;;6241901;23;19954;-68
2022/08/25 15:38:12;;;;;;;;;;;;;;;;;;6241861;23;20336;-68
2022/08/25 15:40:38;;;;;;;;;;;;;;;;;;6241630;23;20367;-69
2022/08/25 15:43:04;;;;;;;;;;;;;;;;;;6242036;23;19939;-69
2022/08/25 15:45:30;;;;;;;;;;;;;;;;;;6243189;23;19962;-69
2022/08/25 15:47:55;;;;;;;;;;;;;;;;;;6241891;23;19918;-68
2022/08/25 15:50:22;;;;;;;;;;;;;;;;;;6244170;23;19908;-69
2022/08/25 15:52:48;;;;;;;;;;;;;;;;;;6243263;23;19914;-68
2022/08/25 15:55:13;;;;;;;;;;;;;;;;;;6243692;23;19908;-68
2022/08/25 15:57:39;;;;;;;;;;;;;;;;;;6243026;23;19907;-67
2022/08/25 16:00:06;;;;;;;;;;;;;;;;;;6243476;23;19915;-67
2022/08/25 16:02:33;;;;;;;;;;;;;;;;;;6243089;23;20288;-69
2022/08/25 16:04:59;;;;;;;;;;;;;;;;;;6242993;23;19953;-69
2022/08/25 16:07:25;;;;;;;;;;;;;;;;;;6243075;23;19911;-68
2022/08/25 16:09:50;;;;;;;;;;;;;;;;;;6243164;23;19919;-67
2022/08/25 16:12:16;;;;;;;;;;;;;;;;;;6243544;23;19911;-68
2022/08/25 16:14:42;;;;;;;;;;;;;;;;;;6241630;23;20325;-68
2022/08/25 16:17:07;;;;;;;;;;;;;;;;;;6243563;23;19923;-69
2022/08/25 16:19:33;;;;;;;;;;;;;;;;;;6243713;23;19915;-67
2022/08/25 16:21:59;;;;;;;;;;;;;;;;;;6243477;23;19910;-68
2022/08/25 16:24:24;;;;;;;;;;;;;;;;;;6216389;23;19914;-68
2022/08/25 16:26:50;;;;;;;;;;;;;;;;;;6243423;23;19907;-66
2022/08/25 16:29:16;;;;;;;;;;;;;;;;;;6243248;23;20129;-67
2022/08/25 16:31:41;;;;;;;;;;;;;;;;;;6240776;22;19911;-67
2022/08/25 16:34:07;;;;;;;;;;;;;;;;;;6242833;23;20362;-66
2022/08/25 16:36:33;;;;;;;;;;;;;;;;;;6243017;23;19974;-68
2022/08/25 16:39:00;;;;;;;;;;;;;;;;;;6240966;23;19985;-69
2022/08/25 16:41:32;;;;;;;;;;;;;;;;;;6243348;23;19934;-68
2022/08/25 16:43:58;;;;;;;;;;;;;;;;;;6243004;23;20401;-68
2022/08/25 16:46:24;;;;;;;;;;;;;;;;;;6216618;23;19911;-67
2022/08/25 16:48:49;;;;;;;;;;;;;;;;;;6242856;23;19911;-68